sensor_id;sensor_type;location;lat;lon;timestamp;temperature;humidity
33093;DHT22;19456;46.104;12.908;2023-01-20T00:02:19;3.90;99.90
33093;DHT22;19456;46.104;12.908;2023-01-20T00:04:46;3.90;99.90
33093;DHT22;19456;46.104;12.908;2023-01-20T00:07:12;3.90;99.90
33093;DHT22;19456;46.104;12.908;2023-01-20T00:09:38;3.90;99.90
33093;DHT22;19456;46.104;12.908;2023-01-20T00:12:03;3.90;99.90
33093;DHT22;19456;46.104;12.908;2023-01-20T00:14:29;4.00;99.90
33093;DHT22;19456;46.104;12.908;2023-01-20T00:16:54;4.00;99.90
33093;DHT22;19456;46.104;12.908;2023-01-20T00:19:21;4.00;99.90
33093;DHT22;19456;46.104;12.908;2023-01-20T00:21:47;4.10;99.90
33093;DHT22;19456;46.104;12.908;2023-01-20T00:24:13;4.30;99.90
33093;DHT22;19456;46.104;12.908;2023-01-20T00:26:39;4.30;99.90
33093;DHT22;19456;46.104;12.908;2023-01-20T00:29:04;4.30;99.90
33093;DHT22;19456;46.104;12.908;2023-01-20T00:31:30;4.30;99.90
33093;DHT22;19456;46.104;12.908;2023-01-20T00:33:57;4.20;99.90
33093;DHT22;19456;46.104;12.908;2023-01-20T00:36:23;4.10;99.90
33093;DHT22;19456;46.104;12.908;2023-01-20T00:38:49;4.00;99.90
33093;DHT22;19456;46.104;12.908;2023-01-20T00:41:15;3.90;99.90
33093;DHT22;19456;46.104;12.908;2023-01-20T00:43:40;3.90;99.90
33093;DHT22;19456;46.104;12.908;2023-01-20T00:46:06;3.90;99.90
33093;DHT22;19456;46.104;12.908;2023-01-20T00:48:32;3.90;99.90
33093;DHT22;19456;46.104;12.908;2023-01-20T00:50:57;4.00;99.90
33093;DHT22;19456;46.104;12.908;2023-01-20T00:53:23;3.90;99.90
33093;DHT22;19456;46.104;12.908;2023-01-20T00:55:49;3.90;99.90
33093;DHT22;19456;46.104;12.908;2023-01-20T00:58:14;4.00;99.90
33093;DHT22;19456;46.104;12.908;2023-01-20T01:00:40;4.00;99.90
33093;DHT22;19456;46.104;12.908;2023-01-20T01:03:05;4.10;99.90
33093;DHT22;19456;46.104;12.908;2023-01-20T01:05:31;4.10;99.90
33093;DHT22;19456;46.104;12.908;2023-01-20T01:07:57;4.20;99.90
33093;DHT22;19456;46.104;12.908;2023-01-20T01:10:22;4.20;99.90
33093;DHT22;19456;46.104;12.908;2023-01-20T01:12:48;4.20;99.90
33093;DHT22;19456;46.104;12.908;2023-01-20T01:15:13;4.30;99.90
33093;DHT22;19456;46.104;12.908;2023-01-20T01:17:39;4.30;99.90
33093;DHT22;19456;46.104;12.908;2023-01-20T01:20:06;4.40;99.90
33093;DHT22;19456;46.104;12.908;2023-01-20T01:22:32;4.40;99.90
33093;DHT22;19456;46.104;12.908;2023-01-20T01:24:57;4.50;99.90
33093;DHT22;19456;46.104;12.908;2023-01-20T01:27:23;4.50;99.90
33093;DHT22;19456;46.104;12.908;2023-01-20T01:29:48;4.50;99.90
33093;DHT22;19456;46.104;12.908;2023-01-20T01:32:14;4.50;99.90
33093;DHT22;19456;46.104;12.908;2023-01-20T01:34:39;4.40;99.90
33093;DHT22;19456;46.104;12.908;2023-01-20T01:37:05;4.30;99.90
33093;DHT22;19456;46.104;12.908;2023-01-20T01:39:31;4.30;99.90
33093;DHT22;19456;46.104;12.908;2023-01-20T01:41:56;4.40;99.90
33093;DHT22;19456;46.104;12.908;2023-01-20T01:44:23;4.50;99.90
33093;DHT22;19456;46.104;12.908;2023-01-20T01:46:49;4.50;99.90
33093;DHT22;19456;46.104;12.908;2023-01-20T01:49:19;4.40;99.90
33093;DHT22;19456;46.104;12.908;2023-01-20T01:51:50;4.30;99.90
33093;DHT22;19456;46.104;12.908;2023-01-20T01:54:18;4.20;99.90
33093;DHT22;19456;46.104;12.908;2023-01-20T01:56:45;4.20;99.90
33093;DHT22;19456;46.104;12.908;2023-01-20T01:59:13;4.20;99.90
33093;DHT22;19456;46.104;12.908;2023-01-20T02:01:39;4.30;99.90
33093;DHT22;19456;46.104;12.908;2023-01-20T02:04:11;4.40;99.90
33093;DHT22;19456;46.104;12.908;2023-01-20T02:06:40;4.40;99.90
33093;DHT22;19456;46.104;12.908;2023-01-20T02:09:07;4.30;99.90
33093;DHT22;19456;46.104;12.908;2023-01-20T02:11:37;4.30;99.90
33093;DHT22;19456;46.104;12.908;2023-01-20T02:14:03;4.20;99.90
33093;DHT22;19456;46.104;12.908;2023-01-20T02:16:36;4.20;99.90
33093;DHT22;19456;46.104;12.908;2023-01-20T02:19:40;4.20;99.90
33093;DHT22;19456;46.104;12.908;2023-01-20T02:22:38;4.30;99.90
33093;DHT22;19456;46.104;12.908;2023-01-20T02:32:44;4.30;99.90
33093;DHT22;19456;46.104;12.908;2023-01-20T02:35:13;4.20;99.90
33093;DHT22;19456;46.104;12.908;2023-01-20T02:37:47;4.30;99.90
33093;DHT22;19456;46.104;12.908;2023-01-20T02:42:49;4.30;99.90
33093;DHT22;19456;46.104;12.908;2023-01-20T02:45:21;4.30;99.90
33093;DHT22;19456;46.104;12.908;2023-01-20T02:53:01;4.50;99.90
33093;DHT22;19456;46.104;12.908;2023-01-20T02:55:28;4.40;99.90
33093;DHT22;19456;46.104;12.908;2023-01-20T02:58:00;4.50;99.90
33093;DHT22;19456;46.104;12.908;2023-01-20T03:00:32;4.50;99.90
33093;DHT22;19456;46.104;12.908;2023-01-20T03:03:00;4.50;99.90
33093;DHT22;19456;46.104;12.908;2023-01-20T03:05:30;4.40;99.90
33093;DHT22;19456;46.104;12.908;2023-01-20T03:07:57;4.40;99.90
33093;DHT22;19456;46.104;12.908;2023-01-20T03:10:25;4.30;99.90
33093;DHT22;19456;46.104;12.908;2023-01-20T03:15:18;4.40;99.90
33093;DHT22;19456;46.104;12.908;2023-01-20T03:17:45;4.40;99.90
33093;DHT22;19456;46.104;12.908;2023-01-20T03:20:11;4.30;99.90
33093;DHT22;19456;46.104;12.908;2023-01-20T03:22:36;4.40;99.90
33093;DHT22;19456;46.104;12.908;2023-01-20T03:25:18;4.40;99.90
33093;DHT22;19456;46.104;12.908;2023-01-20T03:27:44;4.30;99.90
33093;DHT22;19456;46.104;12.908;2023-01-20T03:30:13;4.40;99.90
33093;DHT22;19456;46.104;12.908;2023-01-20T03:32:40;4.30;99.90
33093;DHT22;19456;46.104;12.908;2023-01-20T03:35:07;4.30;99.90
33093;DHT22;19456;46.104;12.908;2023-01-20T03:37:33;4.20;99.90
33093;DHT22;19456;46.104;12.908;2023-01-20T03:39:58;4.10;99.90
33093;DHT22;19456;46.104;12.908;2023-01-20T03:47:54;4.00;99.90
33093;DHT22;19456;46.104;12.908;2023-01-20T03:50:25;4.00;99.90
33093;DHT22;19456;46.104;12.908;2023-01-20T03:52:54;3.90;99.90
33093;DHT22;19456;46.104;12.908;2023-01-20T03:55:27;3.80;99.90
33093;DHT22;19456;46.104;12.908;2023-01-20T04:00:27;3.90;99.90
33093;DHT22;19456;46.104;12.908;2023-01-20T04:02:55;3.90;99.90
33093;DHT22;19456;46.104;12.908;2023-01-20T04:05:22;4.10;99.90
33093;DHT22;19456;46.104;12.908;2023-01-20T04:07:49;4.20;99.90
33093;DHT22;19456;46.104;12.908;2023-01-20T04:10:16;4.20;99.90
33093;DHT22;19456;46.104;12.908;2023-01-20T04:12:42;4.30;99.90
33093;DHT22;19456;46.104;12.908;2023-01-20T04:15:07;4.30;99.90
33093;DHT22;19456;46.104;12.908;2023-01-20T04:17:33;4.30;99.90
33093;DHT22;19456;46.104;12.908;2023-01-20T04:19:59;4.40;99.90
33093;DHT22;19456;46.104;12.908;2023-01-20T04:22:49;4.30;99.90
33093;DHT22;19456;46.104;12.908;2023-01-20T04:25:19;4.30;99.90
33093;DHT22;19456;46.104;12.908;2023-01-20T04:27:46;4.30;99.90
33093;DHT22;19456;46.104;12.908;2023-01-20T04:30:12;4.30;99.90
33093;DHT22;19456;46.104;12.908;2023-01-20T04:32:38;4.30;99.90
33093;DHT22;19456;46.104;12.908;2023-01-20T04:35:03;4.30;99.90
33093;DHT22;19456;46.104;12.908;2023-01-20T04:37:29;4.30;99.90
33093;DHT22;19456;46.104;12.908;2023-01-20T04:39:55;4.40;99.90
33093;DHT22;19456;46.104;12.908;2023-01-20T04:42:20;4.50;99.90
33093;DHT22;19456;46.104;12.908;2023-01-20T04:44:46;4.50;99.90
33093;DHT22;19456;46.104;12.908;2023-01-20T04:47:11;4.50;99.90
33093;DHT22;19456;46.104;12.908;2023-01-20T04:49:37;4.50;99.90
33093;DHT22;19456;46.104;12.908;2023-01-20T04:52:02;4.50;99.90
33093;DHT22;19456;46.104;12.908;2023-01-20T04:54:28;4.40;99.90
33093;DHT22;19456;46.104;12.908;2023-01-20T04:56:53;4.40;99.90
33093;DHT22;19456;46.104;12.908;2023-01-20T04:59:19;4.50;99.90
33093;DHT22;19456;46.104;12.908;2023-01-20T05:01:44;4.50;99.90
33093;DHT22;19456;46.104;12.908;2023-01-20T05:04:10;4.40;99.90
33093;DHT22;19456;46.104;12.908;2023-01-20T05:06:36;4.40;99.90
33093;DHT22;19456;46.104;12.908;2023-01-20T05:09:01;4.40;99.90
33093;DHT22;19456;46.104;12.908;2023-01-20T05:11:27;4.40;99.90
33093;DHT22;19456;46.104;12.908;2023-01-20T05:13:52;4.40;99.90
33093;DHT22;19456;46.104;12.908;2023-01-20T05:16:18;4.30;99.90
33093;DHT22;19456;46.104;12.908;2023-01-20T05:18:48;4.40;99.90
33093;DHT22;19456;46.104;12.908;2023-01-20T05:21:14;4.50;99.90
33093;DHT22;19456;46.104;12.908;2023-01-20T05:23:39;4.50;99.90
33093;DHT22;19456;46.104;12.908;2023-01-20T05:26:05;4.60;99.90
33093;DHT22;19456;46.104;12.908;2023-01-20T05:28:30;4.70;99.90
33093;DHT22;19456;46.104;12.908;2023-01-20T05:30:56;4.70;99.90
33093;DHT22;19456;46.104;12.908;2023-01-20T05:33:21;4.70;99.90
33093;DHT22;19456;46.104;12.908;2023-01-20T05:35:47;4.70;99.90
33093;DHT22;19456;46.104;12.908;2023-01-20T05:38:13;4.70;99.90
33093;DHT22;19456;46.104;12.908;2023-01-20T05:40:38;4.70;99.90
33093;DHT22;19456;46.104;12.908;2023-01-20T05:43:04;4.60;99.90
33093;DHT22;19456;46.104;12.908;2023-01-20T05:45:29;4.70;99.90
33093;DHT22;19456;46.104;12.908;2023-01-20T05:47:55;4.70;99.90
33093;DHT22;19456;46.104;12.908;2023-01-20T05:50:22;4.80;99.90
33093;DHT22;19456;46.104;12.908;2023-01-20T05:52:48;4.80;99.90
33093;DHT22;19456;46.104;12.908;2023-01-20T05:55:13;4.80;99.90
33093;DHT22;19456;46.104;12.908;2023-01-20T05:57:39;4.80;99.90
33093;DHT22;19456;46.104;12.908;2023-01-20T06:00:04;4.90;99.90
33093;DHT22;19456;46.104;12.908;2023-01-20T06:02:30;4.80;99.90
33093;DHT22;19456;46.104;12.908;2023-01-20T06:04:56;4.80;99.90
33093;DHT22;19456;46.104;12.908;2023-01-20T06:07:22;4.80;99.90
33093;DHT22;19456;46.104;12.908;2023-01-20T06:09:47;4.70;99.90
33093;DHT22;19456;46.104;12.908;2023-01-20T06:12:13;4.60;99.90
33093;DHT22;19456;46.104;12.908;2023-01-20T06:14:38;4.50;99.90
33093;DHT22;19456;46.104;12.908;2023-01-20T06:17:04;4.50;99.90
33093;DHT22;19456;46.104;12.908;2023-01-20T06:19:29;4.50;99.90
33093;DHT22;19456;46.104;12.908;2023-01-20T06:21:55;4.40;99.90
33093;DHT22;19456;46.104;12.908;2023-01-20T06:24:20;4.30;99.90
33093;DHT22;19456;46.104;12.908;2023-01-20T06:26:48;4.30;99.90
33093;DHT22;19456;46.104;12.908;2023-01-20T06:29:14;4.30;99.90
33093;DHT22;19456;46.104;12.908;2023-01-20T06:31:39;4.30;99.90
33093;DHT22;19456;46.104;12.908;2023-01-20T06:34:05;4.20;99.90
33093;DHT22;19456;46.104;12.908;2023-01-20T06:36:30;4.20;99.90
33093;DHT22;19456;46.104;12.908;2023-01-20T06:38:56;4.30;99.90
33093;DHT22;19456;46.104;12.908;2023-01-20T06:41:22;4.30;99.90
33093;DHT22;19456;46.104;12.908;2023-01-20T06:43:47;4.20;99.90
33093;DHT22;19456;46.104;12.908;2023-01-20T06:46:14;4.20;99.90
33093;DHT22;19456;46.104;12.908;2023-01-20T06:48:40;4.00;99.90
33093;DHT22;19456;46.104;12.908;2023-01-20T06:51:08;4.00;99.90
33093;DHT22;19456;46.104;12.908;2023-01-20T06:53:33;4.00;99.90
33093;DHT22;19456;46.104;12.908;2023-01-20T06:55:59;4.10;99.90
33093;DHT22;19456;46.104;12.908;2023-01-20T06:58:26;4.10;99.90
33093;DHT22;19456;46.104;12.908;2023-01-20T07:00:52;4.10;99.90
33093;DHT22;19456;46.104;12.908;2023-01-20T07:03:18;4.10;99.90
33093;DHT22;19456;46.104;12.908;2023-01-20T07:06:04;4.00;99.90
33093;DHT22;19456;46.104;12.908;2023-01-20T07:08:49;3.90;99.90
33093;DHT22;19456;46.104;12.908;2023-01-20T07:11:17;4.00;99.90
33093;DHT22;19456;46.104;12.908;2023-01-20T07:13:42;4.00;99.90
33093;DHT22;19456;46.104;12.908;2023-01-20T07:16:08;4.00;99.90
33093;DHT22;19456;46.104;12.908;2023-01-20T07:18:34;4.00;99.90
33093;DHT22;19456;46.104;12.908;2023-01-20T07:21:00;4.10;99.90
33093;DHT22;19456;46.104;12.908;2023-01-20T07:23:26;4.10;99.90
33093;DHT22;19456;46.104;12.908;2023-01-20T07:26:05;4.10;99.90
33093;DHT22;19456;46.104;12.908;2023-01-20T07:28:31;4.10;99.90
33093;DHT22;19456;46.104;12.908;2023-01-20T07:31:03;4.10;99.90
33093;DHT22;19456;46.104;12.908;2023-01-20T07:33:29;4.20;99.90
33093;DHT22;19456;46.104;12.908;2023-01-20T07:35:55;4.20;99.90
33093;DHT22;19456;46.104;12.908;2023-01-20T07:38:20;4.20;99.90
33093;DHT22;19456;46.104;12.908;2023-01-20T07:40:46;4.20;99.90
33093;DHT22;19456;46.104;12.908;2023-01-20T07:43:12;4.20;99.90
33093;DHT22;19456;46.104;12.908;2023-01-20T07:45:37;4.20;99.90
33093;DHT22;19456;46.104;12.908;2023-01-20T07:48:03;4.00;99.90
33093;DHT22;19456;46.104;12.908;2023-01-20T07:50:28;3.90;99.90
33093;DHT22;19456;46.104;12.908;2023-01-20T07:52:54;3.90;99.90
33093;DHT22;19456;46.104;12.908;2023-01-20T07:55:20;4.10;99.90
33093;DHT22;19456;46.104;12.908;2023-01-20T07:57:46;4.00;99.90
33093;DHT22;19456;46.104;12.908;2023-01-20T08:00:12;4.10;99.90
33093;DHT22;19456;46.104;12.908;2023-01-20T08:02:37;4.10;99.90
33093;DHT22;19456;46.104;12.908;2023-01-20T08:05:03;4.20;99.90
33093;DHT22;19456;46.104;12.908;2023-01-20T08:07:29;4.20;99.90
33093;DHT22;19456;46.104;12.908;2023-01-20T08:09:56;4.20;99.90
33093;DHT22;19456;46.104;12.908;2023-01-20T08:12:21;4.20;99.90
33093;DHT22;19456;46.104;12.908;2023-01-20T08:14:48;4.20;99.90
33093;DHT22;19456;46.104;12.908;2023-01-20T08:17:13;4.20;99.90
33093;DHT22;19456;46.104;12.908;2023-01-20T08:19:39;4.20;99.90
33093;DHT22;19456;46.104;12.908;2023-01-20T08:22:05;4.30;99.90
33093;DHT22;19456;46.104;12.908;2023-01-20T08:24:30;4.40;99.90
33093;DHT22;19456;46.104;12.908;2023-01-20T08:26:56;4.50;99.90
33093;DHT22;19456;46.104;12.908;2023-01-20T08:29:21;4.60;99.90
33093;DHT22;19456;46.104;12.908;2023-01-20T08:31:47;4.60;99.90
33093;DHT22;19456;46.104;12.908;2023-01-20T08:34:13;4.70;99.90
33093;DHT22;19456;46.104;12.908;2023-01-20T08:36:39;4.80;99.90
33093;DHT22;19456;46.104;12.908;2023-01-20T08:39:08;4.90;99.90
33093;DHT22;19456;46.104;12.908;2023-01-20T08:41:35;5.00;99.90
33093;DHT22;19456;46.104;12.908;2023-01-20T08:44:01;5.10;99.90
33093;DHT22;19456;46.104;12.908;2023-01-20T08:46:28;5.20;99.90
33093;DHT22;19456;46.104;12.908;2023-01-20T08:48:54;5.20;99.90
33093;DHT22;19456;46.104;12.908;2023-01-20T08:51:21;5.30;99.90
33093;DHT22;19456;46.104;12.908;2023-01-20T08:53:47;5.20;99.90
33093;DHT22;19456;46.104;12.908;2023-01-20T08:56:13;5.10;99.90
33093;DHT22;19456;46.104;12.908;2023-01-20T08:58:39;5.30;99.90
33093;DHT22;19456;46.104;12.908;2023-01-20T09:01:09;5.40;99.90
33093;DHT22;19456;46.104;12.908;2023-01-20T09:03:35;5.60;99.90
33093;DHT22;19456;46.104;12.908;2023-01-20T09:06:01;5.60;99.90
33093;DHT22;19456;46.104;12.908;2023-01-20T09:08:27;5.50;99.90
33093;DHT22;19456;46.104;12.908;2023-01-20T09:10:54;5.60;99.90
33093;DHT22;19456;46.104;12.908;2023-01-20T09:13:25;5.80;99.90
33093;DHT22;19456;46.104;12.908;2023-01-20T09:15:51;6.00;99.90
33093;DHT22;19456;46.104;12.908;2023-01-20T09:18:17;6.10;99.90
33093;DHT22;19456;46.104;12.908;2023-01-20T09:20:42;6.20;99.90
33093;DHT22;19456;46.104;12.908;2023-01-20T09:23:08;6.30;99.90
33093;DHT22;19456;46.104;12.908;2023-01-20T09:25:33;6.30;99.90
33093;DHT22;19456;46.104;12.908;2023-01-20T09:27:59;6.20;99.90
33093;DHT22;19456;46.104;12.908;2023-01-20T09:30:25;6.00;99.90
33093;DHT22;19456;46.104;12.908;2023-01-20T09:32:51;5.70;99.90
33093;DHT22;19456;46.104;12.908;2023-01-20T09:35:19;5.60;99.90
33093;DHT22;19456;46.104;12.908;2023-01-20T09:37:45;5.50;99.90
33093;DHT22;19456;46.104;12.908;2023-01-20T09:40:34;5.40;99.90
33093;DHT22;19456;46.104;12.908;2023-01-20T09:46:15;5.70;99.90
33093;DHT22;19456;46.104;12.908;2023-01-20T09:51:33;5.90;99.90
33093;DHT22;19456;46.104;12.908;2023-01-20T09:54:22;5.90;99.90
33093;DHT22;19456;46.104;12.908;2023-01-20T09:56:58;6.40;99.90
33093;DHT22;19456;46.104;12.908;2023-01-20T09:59:36;6.70;99.90
33093;DHT22;19456;46.104;12.908;2023-01-20T10:02:06;6.90;99.90
33093;DHT22;19456;46.104;12.908;2023-01-20T11:24:22;9.70;99.90
33093;DHT22;19456;46.104;12.908;2023-01-20T11:33:47;10.60;99.90
33093;DHT22;19456;46.104;12.908;2023-01-20T11:36:36;11.00;99.90
33093;DHT22;19456;46.104;12.908;2023-01-20T12:01:13;11.10;99.90
33093;DHT22;19456;46.104;12.908;2023-01-20T13:59:01;8.40;99.90
33093;DHT22;19456;46.104;12.908;2023-01-20T14:14:24;8.50;99.90
33093;DHT22;19456;46.104;12.908;2023-01-20T14:21:15;8.40;99.90
33093;DHT22;19456;46.104;12.908;2023-01-20T15:16:46;7.70;99.90
